sensor_id;sensor_type;location;lat;lon;timestamp;pressure;altitude;pressure_sealevel;temperature;humidity
25638;BME280;13496;51.040;13.680;2024-02-14T00:03:37;100186.09;;;19.17;52.31
25638;BME280;13496;51.040;13.680;2024-02-14T00:08:39;100170.31;;;19.17;52.23
25638;BME280;13496;51.040;13.680;2024-02-14T00:13:41;100169.00;;;19.13;52.46
25638;BME280;13496;51.040;13.680;2024-02-14T00:18:43;100176.28;;;19.11;52.83
25638;BME280;13496;51.040;13.680;2024-02-14T00:23:45;100181.53;;;19.11;52.67
25638;BME280;13496;51.040;13.680;2024-02-14T00:28:47;100175.47;;;19.10;52.31
25638;BME280;13496;51.040;13.680;2024-02-14T00:33:49;100173.66;;;19.11;52.44
25638;BME280;13496;51.040;13.680;2024-02-14T00:38:50;100167.72;;;19.09;52.61
25638;BME280;13496;51.040;13.680;2024-02-14T00:43:52;100172.19;;;19.08;52.67
25638;BME280;13496;51.040;13.680;2024-02-14T00:48:55;100185.53;;;19.07;52.76
25638;BME280;13496;51.040;13.680;2024-02-14T00:53:57;100190.31;;;19.03;52.33
25638;BME280;13496;51.040;13.680;2024-02-14T00:58:59;100188.69;;;19.02;52.63
25638;BME280;13496;51.040;13.680;2024-02-14T01:04:01;100184.25;;;19.03;52.26
25638;BME280;13496;51.040;13.680;2024-02-14T01:09:03;100185.06;;;19.03;52.43
25638;BME280;13496;51.040;13.680;2024-02-14T01:14:05;100188.50;;;19.04;52.54
25638;BME280;13496;51.040;13.680;2024-02-14T01:19:06;100183.59;;;19.01;52.34
25638;BME280;13496;51.040;13.680;2024-02-14T01:24:08;100183.81;;;18.99;52.20
25638;BME280;13496;51.040;13.680;2024-02-14T01:29:10;100177.72;;;18.99;52.20
25638;BME280;13496;51.040;13.680;2024-02-14T01:34:12;100171.63;;;18.98;52.51
25638;BME280;13496;51.040;13.680;2024-02-14T01:39:14;100180.34;;;18.99;52.38
25638;BME280;13496;51.040;13.680;2024-02-14T01:44:17;100167.56;;;18.96;52.14
25638;BME280;13496;51.040;13.680;2024-02-14T01:49:19;100168.38;;;18.96;52.45
25638;BME280;13496;51.040;13.680;2024-02-14T01:54:21;100172.81;;;18.96;52.43
25638;BME280;13496;51.040;13.680;2024-02-14T01:59:23;100159.03;;;18.94;52.31
25638;BME280;13496;51.040;13.680;2024-02-14T02:04:26;100159.03;;;18.94;52.21
25638;BME280;13496;51.040;13.680;2024-02-14T02:09:28;100158.41;;;18.92;52.37
25638;BME280;13496;51.040;13.680;2024-02-14T02:14:30;100160.28;;;18.98;52.34
25638;BME280;13496;51.040;13.680;2024-02-14T02:19:44;100161.38;;;18.89;52.47
25638;BME280;13496;51.040;13.680;2024-02-14T02:25:07;100157.75;;;18.90;52.20
25638;BME280;13496;51.040;13.680;2024-02-14T02:30:11;100152.50;;;18.90;52.43
25638;BME280;13496;51.040;13.680;2024-02-14T02:35:15;100153.84;;;18.85;52.49
25638;BME280;13496;51.040;13.680;2024-02-14T02:40:37;100150.22;;;18.86;52.20
25638;BME280;13496;51.040;13.680;2024-02-14T02:45:58;100140.72;;;18.85;51.98
25638;BME280;13496;51.040;13.680;2024-02-14T02:51:35;100143.69;;;18.82;52.14
25638;BME280;13496;51.040;13.680;2024-02-14T02:56:57;100139.09;;;18.84;52.13
25638;BME280;13496;51.040;13.680;2024-02-14T03:02:00;100131.81;;;18.86;51.76
25638;BME280;13496;51.040;13.680;2024-02-14T03:07:21;100122.66;;;18.82;52.17
25638;BME280;13496;51.040;13.680;2024-02-14T03:12:46;100115.59;;;18.83;51.91
25638;BME280;13496;51.040;13.680;2024-02-14T03:18:08;100113.16;;;18.81;52.22
25638;BME280;13496;51.040;13.680;2024-02-14T03:23:11;100114.41;;;18.85;52.03
25638;BME280;13496;51.040;13.680;2024-02-14T03:28:13;100111.13;;;18.83;51.90
25638;BME280;13496;51.040;13.680;2024-02-14T03:33:15;100107.69;;;18.83;51.76
25638;BME280;13496;51.040;13.680;2024-02-14T03:38:27;100109.88;;;18.79;52.18
25638;BME280;13496;51.040;13.680;2024-02-14T03:43:29;100106.44;;;18.79;52.03
25638;BME280;13496;51.040;13.680;2024-02-14T03:48:31;100101.00;;;18.80;51.67
25638;BME280;13496;51.040;13.680;2024-02-14T03:53:33;100101.19;;;18.79;52.00
25638;BME280;13496;51.040;13.680;2024-02-14T03:58:35;100103.81;;;18.79;51.62
25638;BME280;13496;51.040;13.680;2024-02-14T04:03:38;100105.00;;;18.76;51.94
25638;BME280;13496;51.040;13.680;2024-02-14T04:08:40;100102.00;;;18.79;51.83
25638;BME280;13496;51.040;13.680;2024-02-14T04:13:42;100096.13;;;18.77;51.82
25638;BME280;13496;51.040;13.680;2024-02-14T04:18:44;100090.03;;;18.77;51.78
25638;BME280;13496;51.040;13.680;2024-02-14T04:23:45;100080.69;;;18.74;51.57
25638;BME280;13496;51.040;13.680;2024-02-14T04:28:47;100083.97;;;18.76;51.53
25638;BME280;13496;51.040;13.680;2024-02-14T04:33:49;100080.69;;;18.74;51.72
25638;BME280;13496;51.040;13.680;2024-02-14T04:38:53;100091.22;;;18.74;51.70
25638;BME280;13496;51.040;13.680;2024-02-14T04:43:57;100085.13;;;18.74;51.58
25638;BME280;13496;51.040;13.680;2024-02-14T04:48:59;100081.88;;;18.72;51.71
25638;BME280;13496;51.040;13.680;2024-02-14T04:54:00;100080.69;;;18.74;51.97
25638;BME280;13496;51.040;13.680;2024-02-14T04:59:02;100084.34;;;18.73;51.65
25638;BME280;13496;51.040;13.680;2024-02-14T05:04:04;100081.06;;;18.71;51.81
25638;BME280;13496;51.040;13.680;2024-02-14T05:09:06;100088.94;;;18.71;51.82
25638;BME280;13496;51.040;13.680;2024-02-14T05:14:08;100094.19;;;18.71;51.73
25638;BME280;13496;51.040;13.680;2024-02-14T05:19:09;100081.88;;;18.72;51.49
25638;BME280;13496;51.040;13.680;2024-02-14T05:24:12;100086.31;;;18.71;51.83
25638;BME280;13496;51.040;13.680;2024-02-14T05:29:14;100081.69;;;18.73;51.77
25638;BME280;13496;51.040;13.680;2024-02-14T05:34:16;100080.03;;;18.72;51.77
25638;BME280;13496;51.040;13.680;2024-02-14T05:39:17;100082.69;;;18.72;51.42
25638;BME280;13496;51.040;13.680;2024-02-14T05:44:20;100068.88;;;18.70;51.39
25638;BME280;13496;51.040;13.680;2024-02-14T05:49:27;100064.47;;;18.71;51.41
25638;BME280;13496;51.040;13.680;2024-02-14T05:54:28;100064.47;;;18.71;51.63
25638;BME280;13496;51.040;13.680;2024-02-14T05:59:30;100051.03;;;18.66;51.68
25638;BME280;13496;51.040;13.680;2024-02-14T06:04:32;100051.84;;;18.66;51.40
25638;BME280;13496;51.040;13.680;2024-02-14T06:09:34;100038.88;;;18.65;51.54
25638;BME280;13496;51.040;13.680;2024-02-14T06:14:36;100049.22;;;18.66;51.40
25638;BME280;13496;51.040;13.680;2024-02-14T06:19:38;100059.09;;;18.64;51.58
25638;BME280;13496;51.040;13.680;2024-02-14T06:24:40;100060.75;;;18.65;51.25
25638;BME280;13496;51.040;13.680;2024-02-14T06:29:42;100064.69;;;18.61;51.67
25638;BME280;13496;51.040;13.680;2024-02-14T06:34:45;100063.06;;;18.60;51.68
25638;BME280;13496;51.040;13.680;2024-02-14T06:39:46;100066.72;;;18.59;51.91
25638;BME280;13496;51.040;13.680;2024-02-14T06:44:50;100073.59;;;18.60;51.34
25638;BME280;13496;51.040;13.680;2024-02-14T06:49:51;100077.47;;;18.64;51.53
25638;BME280;13496;51.040;13.680;2024-02-14T06:54:53;100073.22;;;18.63;51.24
25638;BME280;13496;51.040;13.680;2024-02-14T06:59:55;100071.97;;;18.59;51.37
25638;BME280;13496;51.040;13.680;2024-02-14T07:04:57;100071.31;;;18.57;51.59
25638;BME280;13496;51.040;13.680;2024-02-14T07:09:59;100066.41;;;18.54;51.61
25638;BME280;13496;51.040;13.680;2024-02-14T07:15:00;100062.63;;;18.56;51.39
25638;BME280;13496;51.040;13.680;2024-02-14T07:20:02;100049.22;;;18.51;51.95
25638;BME280;13496;51.040;13.680;2024-02-14T07:25:06;100042.69;;;18.47;52.14
25638;BME280;13496;51.040;13.680;2024-02-14T07:30:10;100049.75;;;18.47;51.78
25638;BME280;13496;51.040;13.680;2024-02-14T07:35:12;100043.50;;;18.48;52.24
25638;BME280;13496;51.040;13.680;2024-02-14T07:40:14;100045.94;;;18.49;51.88
25638;BME280;13496;51.040;13.680;2024-02-14T07:45:33;100037.88;;;18.51;52.22
25638;BME280;13496;51.040;13.680;2024-02-14T07:50:35;100031.91;;;18.57;51.91
25638;BME280;13496;51.040;13.680;2024-02-14T07:55:37;100023.84;;;18.58;52.19
25638;BME280;13496;51.040;13.680;2024-02-14T08:00:39;100010.97;;;18.63;51.74
25638;BME280;13496;51.040;13.680;2024-02-14T08:05:40;100001.91;;;18.66;51.82
25638;BME280;13496;51.040;13.680;2024-02-14T08:10:44;100004.53;;;18.66;51.71
25638;BME280;13496;51.040;13.680;2024-02-14T08:15:45;99999.66;;;18.63;51.88
25638;BME280;13496;51.040;13.680;2024-02-14T08:20:48;100002.47;;;18.61;52.22
25638;BME280;13496;51.040;13.680;2024-02-14T08:25:51;99997.47;;;18.67;51.87
25638;BME280;13496;51.040;13.680;2024-02-14T08:30:52;99997.91;;;18.70;51.93
25638;BME280;13496;51.040;13.680;2024-02-14T08:35:54;99993.50;;;18.71;51.87
25638;BME280;13496;51.040;13.680;2024-02-14T08:40:58;99974.75;;;18.74;51.93
25638;BME280;13496;51.040;13.680;2024-02-14T08:46:00;99974.91;;;18.72;51.81
25638;BME280;13496;51.040;13.680;2024-02-14T08:51:02;99982.31;;;18.69;52.09
25638;BME280;13496;51.040;13.680;2024-02-14T08:56:05;99992.34;;;18.73;51.76
25638;BME280;13496;51.040;13.680;2024-02-14T09:01:07;100004.28;;;18.76;51.83
25638;BME280;13496;51.040;13.680;2024-02-14T09:06:10;100004.28;;;18.76;51.67
25638;BME280;13496;51.040;13.680;2024-02-14T09:11:12;99994.59;;;18.76;51.69
25638;BME280;13496;51.040;13.680;2024-02-14T09:16:14;99996.59;;;18.74;51.71
25638;BME280;13496;51.040;13.680;2024-02-14T09:21:19;100010.19;;;18.78;51.91
25638;BME280;13496;51.040;13.680;2024-02-14T09:26:21;100000.84;;;18.75;51.81
25638;BME280;13496;51.040;13.680;2024-02-14T09:31:23;100008.72;;;18.75;51.63
25638;BME280;13496;51.040;13.680;2024-02-14T09:36:25;100011.06;;;18.70;51.81
25638;BME280;13496;51.040;13.680;2024-02-14T09:41:31;100003.09;;;18.78;51.62
25638;BME280;13496;51.040;13.680;2024-02-14T09:46:38;100011.63;;;18.80;51.60
25638;BME280;13496;51.040;13.680;2024-02-14T09:51:41;100006.00;;;18.83;51.62
25638;BME280;13496;51.040;13.680;2024-02-14T09:56:52;100006.44;;;18.87;52.05
25638;BME280;13496;51.040;13.680;2024-02-14T10:01:55;100013.34;;;18.88;51.63
25638;BME280;13496;51.040;13.680;2024-02-14T10:06:57;99997.75;;;18.86;51.79
25638;BME280;13496;51.040;13.680;2024-02-14T10:11:59;100015.22;;;18.94;51.30
25638;BME280;13496;51.040;13.680;2024-02-14T10:17:01;100008.44;;;19.00;51.57
25638;BME280;13496;51.040;13.680;2024-02-14T10:22:03;100006.53;;;18.94;51.71
25638;BME280;13496;51.040;13.680;2024-02-14T10:27:06;100014.59;;;18.92;51.58
25638;BME280;13496;51.040;13.680;2024-02-14T10:32:10;100003.28;;;18.92;51.72
25638;BME280;13496;51.040;13.680;2024-02-14T10:37:13;100018.03;;;18.93;51.34
25638;BME280;13496;51.040;13.680;2024-02-14T10:42:16;99996.75;;;18.88;51.66
25638;BME280;13496;51.040;13.680;2024-02-14T10:47:19;99991.38;;;18.96;51.55
25638;BME280;13496;51.040;13.680;2024-02-14T10:52:25;99982.50;;;18.97;51.42
25638;BME280;13496;51.040;13.680;2024-02-14T10:57:28;99972.63;;;18.99;51.59
25638;BME280;13496;51.040;13.680;2024-02-14T11:02:31;99963.34;;;19.03;51.55
25638;BME280;13496;51.040;13.680;2024-02-14T11:07:34;99955.28;;;19.04;51.53
25638;BME280;13496;51.040;13.680;2024-02-14T11:12:37;99944.19;;;19.09;51.35
25638;BME280;13496;51.040;13.680;2024-02-14T11:17:40;99945.63;;;19.12;51.15
25638;BME280;13496;51.040;13.680;2024-02-14T11:22:57;99949.88;;;19.13;51.48
25638;BME280;13496;51.040;13.680;2024-02-14T11:28:00;99953.16;;;19.15;51.47
25638;BME280;13496;51.040;13.680;2024-02-14T11:33:16;99948.28;;;19.12;51.63
25638;BME280;13496;51.040;13.680;2024-02-14T11:38:20;99953.41;;;19.20;51.50
25638;BME280;13496;51.040;13.680;2024-02-14T11:43:22;99941.06;;;19.20;51.40
25638;BME280;13496;51.040;13.680;2024-02-14T11:48:24;99952.66;;;19.26;51.42
25638;BME280;13496;51.040;13.680;2024-02-14T11:53:26;99960.72;;;19.24;51.35
25638;BME280;13496;51.040;13.680;2024-02-14T11:58:29;99966.50;;;19.34;50.69
25638;BME280;13496;51.040;13.680;2024-02-14T12:03:33;99962.91;;;19.36;51.26
25638;BME280;13496;51.040;13.680;2024-02-14T12:08:37;99965.91;;;19.32;51.38
25638;BME280;13496;51.040;13.680;2024-02-14T12:13:39;99964.44;;;19.30;51.23
25638;BME280;13496;51.040;13.680;2024-02-14T12:18:45;99965.25;;;19.30;51.40
25638;BME280;13496;51.040;13.680;2024-02-14T12:23:46;99976.16;;;19.27;51.13
25638;BME280;13496;51.040;13.680;2024-02-14T12:28:51;99968.63;;;19.24;51.08
25638;BME280;13496;51.040;13.680;2024-02-14T12:33:53;99964.66;;;19.28;51.32
25638;BME280;13496;51.040;13.680;2024-02-14T12:38:57;99969.50;;;19.31;50.92
25638;BME280;13496;51.040;13.680;2024-02-14T12:43:59;99972.53;;;19.28;51.04
25638;BME280;13496;51.040;13.680;2024-02-14T12:49:01;99979.03;;;19.32;51.10
25638;BME280;13496;51.040;13.680;2024-02-14T12:54:05;99972.53;;;19.28;51.14
25638;BME280;13496;51.040;13.680;2024-02-14T12:59:16;99975.97;;;19.29;51.35
25638;BME280;13496;51.040;13.680;2024-02-14T13:04:19;99965.25;;;19.30;51.24
25638;BME280;13496;51.040;13.680;2024-02-14T13:09:21;99969.25;;;19.26;51.57
25638;BME280;13496;51.040;13.680;2024-02-14T13:14:23;99964.81;;;19.27;51.29
25638;BME280;13496;51.040;13.680;2024-02-14T13:19:26;99966.63;;;19.26;51.55
25638;BME280;13496;51.040;13.680;2024-02-14T13:24:28;99972.53;;;19.28;51.59
25638;BME280;13496;51.040;13.680;2024-02-14T13:29:30;99975.78;;;19.30;51.49
25638;BME280;13496;51.040;13.680;2024-02-14T13:34:32;99977.97;;;19.27;51.13
25638;BME280;13496;51.040;13.680;2024-02-14T13:39:33;99975.53;;;19.25;51.66
25638;BME280;13496;51.040;13.680;2024-02-14T13:44:35;99978.84;;;19.34;51.40
25638;BME280;13496;51.040;13.680;2024-02-14T13:49:37;99978.25;;;19.32;51.19
25638;BME280;13496;51.040;13.680;2024-02-14T13:54:39;99984.41;;;19.24;51.18
25638;BME280;13496;51.040;13.680;2024-02-14T13:59:41;99989.06;;;19.22;51.24
25638;BME280;13496;51.040;13.680;2024-02-14T14:04:43;99995.13;;;19.23;51.48
25638;BME280;13496;51.040;13.680;2024-02-14T14:09:45;99994.31;;;19.22;51.31
25638;BME280;13496;51.040;13.680;2024-02-14T14:14:48;100001.56;;;19.20;51.34
25638;BME280;13496;51.040;13.680;2024-02-14T14:19:50;100002.19;;;19.22;51.88
25638;BME280;13496;51.040;13.680;2024-02-14T14:24:53;100005.84;;;19.21;51.66
25638;BME280;13496;51.040;13.680;2024-02-14T14:29:56;100015.00;;;19.25;51.47
25638;BME280;13496;51.040;13.680;2024-02-14T14:34:58;100019.72;;;19.15;51.68
25638;BME280;13496;51.040;13.680;2024-02-14T14:40:00;100027.88;;;19.20;51.33
25638;BME280;13496;51.040;13.680;2024-02-14T14:45:06;100023.63;;;19.19;51.64
25638;BME280;13496;51.040;13.680;2024-02-14T14:50:09;100016.72;;;19.18;51.73
25638;BME280;13496;51.040;13.680;2024-02-14T14:55:11;100030.25;;;19.15;51.79
25638;BME280;13496;51.040;13.680;2024-02-14T15:00:13;100021.72;;;19.13;51.78
25638;BME280;13496;51.040;13.680;2024-02-14T15:05:15;100029.00;;;19.11;51.89
25638;BME280;13496;51.040;13.680;2024-02-14T15:10:17;100033.00;;;19.07;51.96
25638;BME280;13496;51.040;13.680;2024-02-14T15:15:19;100032.53;;;19.03;52.25
25638;BME280;13496;51.040;13.680;2024-02-14T15:20:21;100031.28;;;18.99;52.33
25638;BME280;13496;51.040;13.680;2024-02-14T15:25:23;100029.47;;;19.00;52.40
25638;BME280;13496;51.040;13.680;2024-02-14T15:30:27;100032.25;;;18.98;52.42
25638;BME280;13496;51.040;13.680;2024-02-14T15:35:47;100034.72;;;19.00;52.35
25638;BME280;13496;51.040;13.680;2024-02-14T15:40:53;100037.50;;;18.98;52.57
25638;BME280;13496;51.040;13.680;2024-02-14T15:45:58;100039.69;;;18.95;52.43
25638;BME280;13496;51.040;13.680;2024-02-14T15:51:01;100039.28;;;18.91;52.49
25638;BME280;13496;51.040;13.680;2024-02-14T15:56:02;100048.34;;;18.89;52.70
25638;BME280;13496;51.040;13.680;2024-02-14T16:01:04;100044.25;;;18.86;52.53
25638;BME280;13496;51.040;13.680;2024-02-14T16:06:08;100037.19;;;18.86;52.40
25638;BME280;13496;51.040;13.680;2024-02-14T16:11:10;100040.16;;;18.83;52.48
25638;BME280;13496;51.040;13.680;2024-02-14T16:16:12;100039.91;;;18.78;52.88
25638;BME280;13496;51.040;13.680;2024-02-14T16:21:14;100035.47;;;18.79;52.71
25638;BME280;13496;51.040;13.680;2024-02-14T16:26:17;100040.72;;;18.79;52.61
25638;BME280;13496;51.040;13.680;2024-02-14T16:31:18;100044.34;;;18.78;52.70
25638;BME280;13496;51.040;13.680;2024-02-14T16:36:21;100053.69;;;18.80;52.59
25638;BME280;13496;51.040;13.680;2024-02-14T16:41:22;100054.22;;;18.76;53.01
25638;BME280;13496;51.040;13.680;2024-02-14T16:46:24;100061.28;;;18.75;52.97
25638;BME280;13496;51.040;13.680;2024-02-14T16:51:26;100062.75;;;18.78;53.04
25638;BME280;13496;51.040;13.680;2024-02-14T16:56:28;100067.19;;;18.77;53.21
25638;BME280;13496;51.040;13.680;2024-02-14T17:01:32;100065.56;;;18.76;52.69
25638;BME280;13496;51.040;13.680;2024-02-14T17:06:34;100066.53;;;18.75;52.83
25638;BME280;13496;51.040;13.680;2024-02-14T17:11:35;100072.81;;;18.74;52.82
25638;BME280;13496;51.040;13.680;2024-02-14T17:16:37;100068.56;;;18.73;53.25
25638;BME280;13496;51.040;13.680;2024-02-14T17:21:43;100069.53;;;18.72;53.26
25638;BME280;13496;51.040;13.680;2024-02-14T17:26:46;100072.00;;;18.74;53.06
25638;BME280;13496;51.040;13.680;2024-02-14T17:31:48;100072.16;;;18.72;53.35
25638;BME280;13496;51.040;13.680;2024-02-14T17:36:51;100076.78;;;18.70;53.25
25638;BME280;13496;51.040;13.680;2024-02-14T17:41:53;100089.25;;;18.68;52.96
25638;BME280;13496;51.040;13.680;2024-02-14T17:46:55;100089.09;;;18.70;53.40
25638;BME280;13496;51.040;13.680;2024-02-14T17:51:57;100089.59;;;18.73;52.96
25638;BME280;13496;51.040;13.680;2024-02-14T17:57:00;100088.28;;;18.69;53.22
25638;BME280;13496;51.040;13.680;2024-02-14T18:02:03;100087.13;;;18.72;53.08
25638;BME280;13496;51.040;13.680;2024-02-14T18:07:05;100103.91;;;18.71;53.53
25638;BME280;13496;51.040;13.680;2024-02-14T18:12:07;100105.03;;;18.68;53.19
25638;BME280;13496;51.040;13.680;2024-02-14T18:17:09;100107.03;;;18.66;53.10
25638;BME280;13496;51.040;13.680;2024-02-14T18:22:11;100106.03;;;18.67;53.48
25638;BME280;13496;51.040;13.680;2024-02-14T18:27:12;100105.41;;;18.65;53.25
25638;BME280;13496;51.040;13.680;2024-02-14T18:32:15;100095.88;;;18.64;53.10
25638;BME280;13496;51.040;13.680;2024-02-14T18:37:16;100096.88;;;18.63;53.24
25638;BME280;13496;51.040;13.680;2024-02-14T18:42:19;100099.69;;;18.61;53.34
25638;BME280;13496;51.040;13.680;2024-02-14T18:47:20;100104.75;;;18.63;53.41
25638;BME280;13496;51.040;13.680;2024-02-14T18:52:22;100095.88;;;18.64;53.26
25638;BME280;13496;51.040;13.680;2024-02-14T18:57:24;100101.94;;;18.65;53.31
25638;BME280;13496;51.040;13.680;2024-02-14T19:02:26;100097.06;;;18.61;53.42
25638;BME280;13496;51.040;13.680;2024-02-14T19:07:28;100090.25;;;18.67;53.56
25638;BME280;13496;51.040;13.680;2024-02-14T19:12:30;100086.38;;;18.63;53.69
25638;BME280;13496;51.040;13.680;2024-02-14T19:17:35;100085.56;;;18.62;53.31
25638;BME280;13496;51.040;13.680;2024-02-14T19:22:37;100079.84;;;18.59;53.68
25638;BME280;13496;51.040;13.680;2024-02-14T19:27:39;100089.66;;;18.65;53.75
25638;BME280;13496;51.040;13.680;2024-02-14T19:32:40;100090.16;;;18.60;53.53
25638;BME280;13496;51.040;13.680;2024-02-14T19:37:42;100089.66;;;18.65;53.34
25638;BME280;13496;51.040;13.680;2024-02-14T19:42:44;100088.63;;;18.66;53.53
25638;BME280;13496;51.040;13.680;2024-02-14T19:47:47;100082.94;;;18.62;53.48
25638;BME280;13496;51.040;13.680;2024-02-14T19:52:50;100084.75;;;18.62;53.80
25638;BME280;13496;51.040;13.680;2024-02-14T19:57:52;100092.97;;;18.59;53.49
25638;BME280;13496;51.040;13.680;2024-02-14T20:02:54;100095.41;;;18.60;53.86
25638;BME280;13496;51.040;13.680;2024-02-14T20:07:56;100097.22;;;18.60;53.40
25638;BME280;13496;51.040;13.680;2024-02-14T20:12:58;100107.13;;;18.58;53.86
25638;BME280;13496;51.040;13.680;2024-02-14T20:18:01;100106.94;;;18.59;53.64
25638;BME280;13496;51.040;13.680;2024-02-14T20:23:03;100113.47;;;18.63;53.65
25638;BME280;13496;51.040;13.680;2024-02-14T20:28:05;100118.44;;;18.58;53.60
25638;BME280;13496;51.040;13.680;2024-02-14T20:33:06;100120.06;;;18.59;53.78
25638;BME280;13496;51.040;13.680;2024-02-14T20:38:08;100112.84;;;18.61;53.68
25638;BME280;13496;51.040;13.680;2024-02-14T20:43:11;100115.63;;;18.60;53.60
25638;BME280;13496;51.040;13.680;2024-02-14T20:48:13;100114.63;;;18.61;53.83
25638;BME280;13496;51.040;13.680;2024-02-14T20:53:15;100114.00;;;18.59;53.90
25638;BME280;13496;51.040;13.680;2024-02-14T20:58:17;100109.75;;;18.58;53.77
25638;BME280;13496;51.040;13.680;2024-02-14T21:03:18;100116.78;;;18.57;53.48
25638;BME280;13496;51.040;13.680;2024-02-14T21:08:20;100125.78;;;18.63;53.86
25638;BME280;13496;51.040;13.680;2024-02-14T21:13:22;100118.00;;;18.55;53.88
25638;BME280;13496;51.040;13.680;2024-02-14T21:18:24;100115.00;;;18.58;53.56
25638;BME280;13496;51.040;13.680;2024-02-14T21:23:26;100119.25;;;18.59;53.57
25638;BME280;13496;51.040;13.680;2024-02-14T21:28:28;100132.56;;;18.57;53.80
25638;BME280;13496;51.040;13.680;2024-02-14T21:33:29;100126.50;;;18.57;53.67
25638;BME280;13496;51.040;13.680;2024-02-14T21:38:31;100131.75;;;18.57;53.53
25638;BME280;13496;51.040;13.680;2024-02-14T21:43:33;100128.66;;;18.53;53.88
25638;BME280;13496;51.040;13.680;2024-02-14T21:48:35;100122.06;;;18.57;53.94
25638;BME280;13496;51.040;13.680;2024-02-14T21:53:37;100128.16;;;18.58;53.65
25638;BME280;13496;51.040;13.680;2024-02-14T21:58:39;100127.03;;;18.52;53.85
25638;BME280;13496;51.040;13.680;2024-02-14T22:03:41;100133.28;;;18.51;54.03
25638;BME280;13496;51.040;13.680;2024-02-14T22:08:43;100131.13;;;18.55;53.93
25638;BME280;13496;51.040;13.680;2024-02-14T22:13:45;100137.34;;;18.54;54.12
25638;BME280;13496;51.040;13.680;2024-02-14T22:18:49;100127.03;;;18.52;54.07
25638;BME280;13496;51.040;13.680;2024-02-14T22:23:50;100123.06;;;18.56;53.76
25638;BME280;13496;51.040;13.680;2024-02-14T22:28:52;100118.97;;;18.54;53.60
25638;BME280;13496;51.040;13.680;2024-02-14T22:33:56;100126.84;;;18.54;53.80
25638;BME280;13496;51.040;13.680;2024-02-14T22:38:58;100127.31;;;18.57;54.05
25638;BME280;13496;51.040;13.680;2024-02-14T22:44:00;100111.91;;;18.54;53.95
25638;BME280;13496;51.040;13.680;2024-02-14T22:49:02;100112.72;;;18.55;53.92
25638;BME280;13496;51.040;13.680;2024-02-14T22:54:04;100110.25;;;18.53;54.10
25638;BME280;13496;51.040;13.680;2024-02-14T22:59:06;100109.91;;;18.56;53.55
25638;BME280;13496;51.040;13.680;2024-02-14T23:04:08;100113.34;;;18.57;53.90
25638;BME280;13496;51.040;13.680;2024-02-14T23:09:11;100120.50;;;18.48;53.88
25638;BME280;13496;51.040;13.680;2024-02-14T23:14:14;100108.53;;;18.46;53.75
25638;BME280;13496;51.040;13.680;2024-02-14T23:19:18;100109.81;;;18.50;53.99
25638;BME280;13496;51.040;13.680;2024-02-14T23:24:20;100106.66;;;18.54;53.80
25638;BME280;13496;51.040;13.680;2024-02-14T23:29:22;100099.69;;;18.47;53.97
25638;BME280;13496;51.040;13.680;2024-02-14T23:34:24;100093.22;;;18.49;53.94
25638;BME280;13496;51.040;13.680;2024-02-14T23:39:26;100092.59;;;18.47;53.87
25638;BME280;13496;51.040;13.680;2024-02-14T23:44:28;100099.69;;;18.47;53.87
25638;BME280;13496;51.040;13.680;2024-02-14T23:49:30;100091.78;;;18.47;53.75
25638;BME280;13496;51.040;13.680;2024-02-14T23:54:31;100078.66;;;18.47;54.01
25638;BME280;13496;51.040;13.680;2024-02-14T23:59:33;100081.63;;;18.44;54.30
